createdAt,value
2019-04-22T00:01:45.629Z,49.31
2019-04-22T00:04:22.690Z,49.31
2019-04-22T00:07:07.105Z,49.21
2019-04-22T00:09:44.470Z,49.11
2019-04-22T00:12:14.641Z,49.10
2019-04-22T00:14:48.347Z,49.11
2019-04-22T00:17:23.317Z,49.15
2019-04-22T00:19:50.554Z,49.15
2019-04-22T00:22:26.083Z,49.22
2019-04-22T00:24:55.462Z,49.24
2019-04-22T00:27:30.879Z,49.16
2019-04-22T00:30:02.484Z,49.10
2019-04-22T00:32:30.462Z,49.15
2019-04-22T00:35:02.435Z,49.19
2019-04-22T00:37:40.723Z,49.20
2019-04-22T00:40:10.965Z,49.22
2019-04-22T00:42:36.052Z,49.18
2019-04-22T00:45:08.206Z,49.25
2019-04-22T00:47:41.625Z,49.25
2019-04-22T00:55:12.386Z,49.79
2019-04-22T00:57:38.770Z,49.72
2019-04-22T01:00:11.907Z,49.57
2019-04-22T01:02:44.544Z,49.62
2019-04-22T01:05:07.751Z,49.57
2019-04-22T01:07:40.774Z,49.57
2019-04-22T01:10:12.762Z,49.61
2019-04-22T01:12:39.629Z,49.68
2019-04-22T01:15:09.239Z,49.67
2019-04-22T01:17:38.807Z,49.86
2019-04-22T01:20:25.787Z,49.86
2019-04-22T01:22:42.511Z,49.95
2019-04-22T01:25:10.877Z,50.04
2019-04-22T01:27:34.865Z,50.27
2019-04-22T01:30:03.704Z,50.35
2019-04-22T01:32:30.339Z,50.53
2019-04-22T01:35:07.511Z,50.56
2019-04-22T01:37:43.275Z,50.59
2019-04-22T01:40:16.617Z,50.59
2019-04-22T01:42:53.624Z,50.62
2019-04-22T01:45:22.813Z,50.62
2019-04-22T01:48:05.245Z,50.93
2019-04-22T01:50:20.740Z,50.87
2019-04-22T01:52:52.119Z,51.47
2019-04-22T01:57:50.982Z,51.44
2019-04-22T02:00:11.569Z,51.45
2019-04-22T02:02:49.210Z,51.60
2019-04-22T02:05:19.200Z,51.59
2019-04-22T02:07:48.445Z,51.63
2019-04-22T02:10:19.358Z,51.64
2019-04-22T02:12:48.502Z,52.02
2019-04-22T02:15:16.943Z,51.93
2019-04-22T02:18:10.738Z,52.08
2019-04-22T02:20:19.830Z,52.10
2019-04-22T02:23:43.112Z,52.33
2019-04-22T02:25:55.979Z,52.50
2019-04-22T02:28:33.743Z,53.11
2019-04-22T02:31:16.021Z,53.83
2019-04-22T02:36:19.824Z,55.85
2019-04-22T02:38:48.911Z,57.93
2019-04-22T02:41:15.965Z,57.89
2019-04-22T02:43:49.298Z,57.54
2019-04-22T02:48:48.224Z,58.18
2019-04-22T02:51:02.097Z,59.10
2019-04-22T02:54:13.957Z,57.85
2019-04-22T02:56:12.133Z,58.12
2019-04-22T02:58:47.647Z,57.91
2019-04-22T03:01:05.639Z,57.87
2019-04-22T03:06:25.497Z,58.20
2019-04-22T03:08:39.626Z,57.90
2019-04-22T03:11:15.265Z,58.28
2019-04-22T03:13:40.464Z,58.16
2019-04-22T03:18:41.956Z,58.11
2019-04-22T03:26:16.516Z,58.45
2019-04-22T03:49:37.176Z,59.12
2019-04-22T03:52:05.018Z,58.95
2019-04-22T03:54:40.362Z,59.08
2019-04-22T04:04:32.658Z,59.20
2019-04-22T04:09:32.547Z,59.47
2019-04-22T04:12:12.295Z,59.39
2019-04-22T04:14:35.984Z,59.46
2019-04-22T04:20:03.339Z,59.80
2019-04-22T04:22:19.513Z,60.20
2019-04-22T04:24:48.897Z,60.04
2019-04-22T04:27:24.092Z,60.50
2019-04-22T04:29:56.108Z,60.43
2019-04-22T04:37:09.026Z,61.11
2019-04-22T04:39:40.554Z,61.12
2019-04-22T04:44:50.166Z,62.34
2019-04-22T04:47:11.498Z,61.69
2019-04-22T04:54:35.879Z,62.28
2019-04-22T04:56:57.073Z,62.33
2019-04-22T04:59:57.844Z,65.11
2019-04-22T05:02:02.405Z,63.71
2019-04-22T05:04:48.735Z,63.35
2019-04-22T05:09:47.974Z,63.23
2019-04-22T05:12:13.064Z,64.60
2019-04-22T05:14:51.767Z,63.41
2019-04-22T05:17:10.533Z,65.46
2019-04-22T05:22:06.053Z,64.03
2019-04-22T05:24:29.795Z,65.40
2019-04-22T05:27:05.385Z,68.03
2019-04-22T05:30:00.122Z,67.89
2019-04-22T05:31:56.935Z,66.52
2019-04-22T05:34:29.187Z,66.98
2019-04-22T05:37:01.226Z,67.15
2019-04-22T05:39:45.482Z,67.01
2019-04-22T05:42:04.197Z,67.12
2019-04-22T05:44:29.392Z,68.26
2019-04-22T05:46:52.771Z,67.89
2019-04-22T05:49:33.254Z,66.67
2019-04-22T05:51:55.067Z,67.37
2019-04-22T05:54:30.437Z,67.14
2019-04-22T05:56:51.666Z,67.81
2019-04-22T05:59:36.219Z,67.65
2019-04-22T06:04:29.724Z,67.52
2019-04-22T06:07:00.108Z,67.10
2019-04-22T06:09:30.689Z,66.66
2019-04-22T06:11:58.974Z,66.66
2019-04-22T06:14:34.531Z,66.07
2019-04-22T06:17:12.390Z,67.12
2019-04-22T06:19:38.235Z,66.32
2019-04-22T06:22:15.469Z,65.22
2019-04-22T06:24:43.696Z,66.30
2019-04-22T06:27:14.568Z,65.16
2019-04-22T06:29:37.837Z,65.58
2019-04-22T06:35:00.449Z,64.38
2019-04-22T06:37:30.369Z,64.34
2019-04-22T06:39:57.359Z,64.53
2019-04-22T06:45:35.098Z,62.92
2019-04-22T06:50:47.563Z,63.29
2019-04-22T06:53:17.443Z,62.42
2019-04-22T06:55:48.214Z,62.23
2019-04-22T06:58:15.374Z,61.77
2019-04-22T07:00:49.426Z,61.74
2019-04-22T07:05:49.465Z,60.99
2019-04-22T07:08:45.701Z,60.75
2019-04-22T07:16:00.347Z,61.21
2019-04-22T07:20:57.872Z,60.74
2019-04-22T07:23:41.716Z,60.51
2019-04-22T07:25:53.391Z,60.64
2019-04-22T07:28:20.109Z,60.34
2019-04-22T07:30:52.840Z,59.66
2019-04-22T07:36:12.317Z,59.16
2019-04-22T07:45:56.570Z,59.07
2019-04-22T07:48:33.314Z,58.85
2019-04-22T07:51:02.612Z,58.55
2019-04-22T07:53:23.008Z,58.57
2019-04-22T07:55:55.431Z,58.07
2019-04-22T07:58:23.878Z,57.87
2019-04-22T08:00:57.781Z,58.46
2019-04-22T08:03:28.989Z,58.37
2019-04-22T08:06:05.450Z,58.45
2019-04-22T08:08:25.829Z,58.22
2019-04-22T08:11:06.879Z,57.80
2019-04-22T08:13:24.770Z,57.56
2019-04-22T08:15:58.752Z,57.08
2019-04-22T08:18:28.903Z,56.40
2019-04-22T08:20:58.889Z,55.06
2019-04-22T08:23:33.626Z,55.07
2019-04-22T08:25:54.256Z,54.78
2019-04-22T08:28:32.098Z,54.62
2019-04-22T08:31:02.084Z,53.97
2019-04-22T08:33:29.263Z,53.03
2019-04-22T08:36:10.520Z,52.72
2019-04-22T08:38:39.610Z,52.29
2019-04-22T08:44:10.553Z,52.72
2019-04-22T08:46:33.109Z,53.13
2019-04-22T08:49:00.728Z,53.48
2019-04-22T08:51:30.866Z,53.82
2019-04-22T09:04:02.240Z,52.67
2019-04-22T09:06:56.979Z,52.07
2019-04-22T09:09:06.193Z,52.24
2019-04-22T09:16:37.308Z,51.41
2019-04-22T09:19:10.686Z,51.33
2019-04-22T09:24:06.875Z,51.25
2019-04-22T09:26:36.146Z,50.47
2019-04-22T09:29:04.999Z,50.42
2019-04-22T09:31:35.961Z,50.08
2019-04-22T09:33:59.572Z,48.89
2019-04-22T09:36:33.959Z,49.17
2019-04-22T09:39:02.903Z,49.53
2019-04-22T09:41:42.917Z,48.63
2019-04-22T09:44:02.378Z,48.51
2019-04-22T09:46:39.033Z,48.24
2019-04-22T09:51:37.351Z,48.28
2019-04-22T09:54:16.728Z,48.76
2019-04-22T09:56:37.326Z,48.65
2019-04-22T09:59:05.109Z,49.24
2019-04-22T10:01:39.043Z,49.15
2019-04-22T10:06:33.773Z,48.03
2019-04-22T10:09:27.183Z,48.03
2019-04-22T10:11:39.168Z,47.59
2019-04-22T10:14:05.870Z,48.11
2019-04-22T10:21:46.299Z,48.14
2019-04-22T10:24:09.291Z,49.19
2019-04-22T10:26:39.403Z,49.19
2019-04-22T10:29:15.702Z,48.70
2019-04-22T10:31:46.249Z,49.05
2019-04-22T10:33:56.068Z,47.75
2019-04-22T10:36:13.567Z,47.91
2019-04-22T10:38:42.246Z,48.17
2019-04-22T10:41:10.521Z,47.99
2019-04-22T10:43:39.191Z,48.28
2019-04-22T10:46:08.204Z,48.94
2019-04-22T10:48:36.719Z,49.83
2019-04-22T10:51:04.822Z,50.10
2019-04-22T10:53:33.398Z,50.18
2019-04-22T10:56:03.023Z,51.09
2019-04-22T10:58:32.743Z,51.65
2019-04-22T11:01:01.142Z,51.60
2019-04-22T11:03:31.242Z,52.07
2019-04-22T11:06:01.150Z,51.50
2019-04-22T11:08:40.241Z,50.42
2019-04-22T11:11:16.735Z,50.42
2019-04-22T11:13:29.765Z,49.36
2019-04-22T11:15:58.375Z,49.36
2019-04-22T11:18:27.682Z,49.71
2019-04-22T11:20:55.841Z,49.71
2019-04-22T11:23:24.675Z,49.52
2019-04-22T11:25:54.080Z,49.52
2019-04-22T11:28:23.354Z,50.54
2019-04-22T11:30:52.334Z,49.61
2019-04-22T11:33:20.691Z,49.01
2019-04-22T11:35:50.127Z,49.01
2019-04-22T11:38:19.095Z,49.71
2019-04-22T11:40:51.732Z,48.73
2019-04-22T11:43:17.042Z,48.30
2019-04-22T11:45:46.979Z,48.60
2019-04-22T11:48:15.482Z,49.83
2019-04-22T11:50:44.064Z,49.68
2019-04-22T11:53:13.143Z,49.69
2019-04-22T11:55:42.567Z,49.66
2019-04-22T11:58:12.894Z,50.29
2019-04-22T12:00:43.030Z,50.29
2019-04-22T12:03:12.513Z,50.27
2019-04-22T12:05:41.736Z,50.04
2019-04-22T12:08:11.080Z,50.00
2019-04-22T12:10:47.138Z,49.91
2019-04-22T12:13:10.297Z,49.62
2019-04-22T12:15:40.804Z,49.35
2019-04-22T12:18:11.204Z,48.92
2019-04-22T12:20:39.441Z,48.34
2019-04-22T12:23:09.281Z,47.78
2019-04-22T12:25:46.487Z,47.47
2019-04-22T12:28:09.159Z,47.52
2019-04-22T12:30:39.344Z,47.29
2019-04-22T12:33:11.026Z,47.19
2019-04-22T12:35:38.773Z,47.40
2019-04-22T12:38:10.253Z,47.85
2019-04-22T12:40:46.764Z,48.60
2019-04-22T12:43:10.692Z,48.60
2019-04-22T12:45:38.598Z,48.46
2019-04-22T12:48:06.759Z,49.09
2019-04-22T12:50:38.468Z,49.09
2019-04-22T12:53:10.912Z,49.24
2019-04-22T12:55:37.482Z,49.11
2019-04-22T12:58:07.641Z,48.76
2019-04-22T13:00:38.346Z,48.52
2019-04-22T13:03:07.403Z,48.22
2019-04-22T13:05:35.737Z,48.22
2019-04-22T13:08:05.456Z,48.68
2019-04-22T13:10:45.421Z,48.32
2019-04-22T13:13:05.155Z,48.07
2019-04-22T13:15:33.185Z,47.84
2019-04-22T13:18:12.841Z,47.03
2019-04-22T13:20:32.277Z,45.66
2019-04-22T13:23:02.112Z,45.66
2019-04-22T13:25:32.251Z,45.38
2019-04-22T13:28:00.994Z,45.13
2019-04-22T13:30:32.465Z,44.67
2019-04-22T13:33:02.836Z,44.47
2019-04-22T13:35:31.838Z,44.08
2019-04-22T13:38:02.020Z,43.33
2019-04-22T13:40:31.089Z,42.99
2019-04-22T13:42:59.032Z,43.09
2019-04-22T13:45:27.636Z,42.54
2019-04-22T13:48:11.124Z,42.45
2019-04-22T13:51:00.929Z,42.43
2019-04-22T13:54:18.498Z,42.27
2019-04-22T13:58:16.086Z,41.81
2019-04-22T14:00:31.179Z,41.86
2019-04-22T14:03:18.751Z,41.23
2019-04-22T14:05:48.810Z,41.17
2019-04-22T14:08:18.452Z,40.82
2019-04-22T14:10:48.230Z,40.36
2019-04-22T14:13:16.411Z,39.84
2019-04-22T14:15:44.772Z,38.82
2019-04-22T14:18:12.972Z,39.23
2019-04-22T14:20:40.975Z,38.28
2019-04-22T14:23:15.962Z,38.10
2019-04-22T14:25:46.217Z,38.37
2019-04-22T14:28:17.588Z,37.54
2019-04-22T14:30:46.144Z,37.63
2019-04-22T14:33:16.072Z,37.31
2019-04-22T14:35:45.753Z,37.61
2019-04-22T14:38:14.223Z,37.64
2019-04-22T14:40:43.533Z,37.07
2019-04-22T14:43:37.376Z,35.92
2019-04-22T14:48:42.047Z,35.20
2019-04-22T14:51:05.997Z,34.51
2019-04-22T14:53:31.023Z,35.14
2019-04-22T14:55:42.426Z,35.18
2019-04-22T14:58:11.009Z,35.06
2019-04-22T15:00:40.032Z,34.86
2019-04-22T15:03:08.337Z,34.73
2019-04-22T15:05:36.580Z,34.65
2019-04-22T15:08:04.596Z,36.19
2019-04-22T15:10:33.730Z,34.48
2019-04-22T15:13:02.963Z,33.75
2019-04-22T15:16:03.046Z,34.24
2019-04-22T15:18:49.680Z,34.17
2019-04-22T15:21:20.746Z,34.33
2019-04-22T15:23:50.767Z,33.90
2019-04-22T15:26:20.331Z,33.99
2019-04-22T15:28:49.386Z,34.05
2019-04-22T15:31:17.669Z,33.67
2019-04-22T15:33:49.875Z,33.39
2019-04-22T15:36:15.564Z,33.21
2019-04-22T15:38:45.021Z,33.21
2019-04-22T15:41:14.676Z,32.63
2019-04-22T15:43:43.679Z,31.81
2019-04-22T15:46:12.010Z,31.60
2019-04-22T15:48:42.062Z,31.98
2019-04-22T15:51:10.954Z,31.14
2019-04-22T15:53:39.891Z,31.93
2019-04-22T15:56:08.772Z,31.20
2019-04-22T15:58:37.465Z,31.38
2019-04-22T16:01:12.993Z,31.84
2019-04-22T16:03:36.807Z,32.22
2019-04-22T16:06:06.104Z,33.08
2019-04-22T16:08:38.730Z,33.79
2019-04-22T16:11:06.825Z,34.23
2019-04-22T16:13:38.054Z,34.13
2019-04-22T16:16:05.191Z,35.09
2019-04-22T16:18:36.128Z,35.67
2019-04-22T16:21:04.955Z,35.87
2019-04-22T16:23:40.413Z,36.71
2019-04-22T16:26:26.663Z,37.13
2019-04-22T16:28:57.622Z,37.46
2019-04-22T16:31:25.068Z,37.19
2019-04-22T16:33:54.354Z,38.14
2019-04-22T16:36:22.995Z,37.93
2019-04-22T16:38:51.224Z,38.35
2019-04-22T16:41:19.367Z,38.20
2019-04-22T16:43:48.838Z,38.20
2019-04-22T16:46:17.251Z,39.23
2019-04-22T16:48:45.554Z,38.93
2019-04-22T16:51:13.915Z,37.92
2019-04-22T16:53:43.238Z,37.59
2019-04-22T16:56:12.869Z,37.91
2019-04-22T16:58:43.103Z,37.29
2019-04-22T17:01:30.684Z,37.87
2019-04-22T17:04:24.809Z,36.67
2019-04-22T17:06:53.514Z,36.79
2019-04-22T17:09:23.682Z,36.89
2019-04-22T17:11:52.277Z,36.80
2019-04-22T17:14:29.702Z,36.87
2019-04-22T17:16:52.632Z,37.06
2019-04-22T17:19:21.641Z,37.41
2019-04-22T17:21:49.998Z,36.85
2019-04-22T17:24:19.422Z,37.17
2019-04-22T17:26:48.424Z,37.12
2019-04-22T17:29:16.866Z,37.04
2019-04-22T17:31:52.238Z,36.81
2019-04-22T17:34:15.806Z,36.96
2019-04-22T17:36:46.266Z,36.49
2019-04-22T17:39:30.444Z,36.82
2019-04-22T17:42:06.972Z,36.92
2019-04-22T17:44:42.331Z,36.71
2019-04-22T17:47:16.675Z,36.52
2019-04-22T17:49:53.750Z,36.38
2019-04-22T17:52:24.947Z,36.59
2019-04-22T17:54:51.581Z,36.58
2019-04-22T17:57:24.167Z,36.82
2019-04-22T17:59:56.810Z,36.94
2019-04-22T18:02:25.288Z,37.01
2019-04-22T18:04:45.717Z,37.08
2019-04-22T18:07:37.138Z,37.08
2019-04-22T18:10:23.943Z,37.14
2019-04-22T18:17:32.487Z,37.29
2019-04-22T18:19:53.233Z,37.33
2019-04-22T18:22:43.392Z,37.60
2019-04-22T18:25:11.383Z,37.67
2019-04-22T18:27:57.368Z,38.10
2019-04-22T18:30:16.732Z,38.10
2019-04-22T18:32:52.067Z,38.78
2019-04-22T18:35:20.926Z,40.16
2019-04-22T18:37:55.736Z,40.96
2019-04-22T18:40:24.337Z,40.96
2019-04-22T18:42:58.422Z,41.78
2019-04-22T18:45:35.799Z,40.98
2019-04-22T18:47:49.095Z,41.32
2019-04-22T18:50:34.090Z,41.43
2019-04-22T18:53:11.008Z,42.00
2019-04-22T18:55:34.821Z,40.64
2019-04-22T18:58:11.671Z,40.63
2019-04-22T19:00:32.325Z,40.95
2019-04-22T19:03:08.907Z,41.35
2019-04-22T19:05:51.699Z,41.56
2019-04-22T19:16:09.781Z,42.49
2019-04-22T19:18:31.981Z,42.70
2019-04-22T19:20:57.696Z,42.92
2019-04-22T19:23:30.214Z,42.76
2019-04-22T19:25:55.682Z,43.22
2019-04-22T19:28:39.474Z,44.88
2019-04-22T19:31:05.587Z,44.89
2019-04-22T19:33:28.834Z,44.43
2019-04-22T19:36:11.062Z,43.51
2019-04-22T19:38:25.314Z,43.62
2019-04-22T19:43:32.631Z,44.05
2019-04-22T19:46:01.960Z,44.25
2019-04-22T19:48:40.459Z,44.17
2019-04-22T19:51:11.121Z,44.02
2019-04-22T19:53:40.468Z,43.99
2019-04-22T19:56:03.589Z,44.15
2019-04-22T19:58:37.431Z,44.61
2019-04-22T20:01:47.236Z,44.34
2019-04-22T20:04:34.637Z,44.19
2019-04-22T20:07:11.305Z,44.28
2019-04-22T20:09:43.495Z,44.15
2019-04-22T20:12:04.462Z,44.36
2019-04-22T20:14:40.247Z,44.35
2019-04-22T20:17:11.431Z,44.25
2019-04-22T20:19:45.903Z,43.86
2019-04-22T20:22:09.700Z,43.75
2019-04-22T20:24:27.735Z,44.15
2019-04-22T20:27:16.358Z,44.15
2019-04-22T20:29:42.114Z,44.22
2019-04-22T20:32:15.655Z,44.89
2019-04-22T20:34:44.583Z,46.53
2019-04-22T20:37:17.791Z,47.43
2019-04-22T20:39:45.569Z,44.50
2019-04-22T20:42:22.761Z,44.50
2019-04-22T20:44:45.971Z,44.97
2019-04-22T20:47:09.145Z,44.86
2019-04-22T20:49:41.621Z,45.05
2019-04-22T20:52:19.306Z,44.92
2019-04-22T20:54:44.874Z,45.11
2019-04-22T20:57:09.542Z,44.88
2019-04-22T20:59:44.264Z,44.76
2019-04-22T21:02:13.518Z,44.60
2019-04-22T21:04:40.869Z,44.66
2019-04-22T21:07:09.027Z,44.46
2019-04-22T21:09:47.210Z,44.44
2019-04-22T21:12:12.569Z,44.33
2019-04-22T21:14:53.302Z,44.30
2019-04-22T21:17:17.389Z,44.20
2019-04-22T21:19:54.728Z,44.20
2019-04-22T21:22:24.230Z,44.60
2019-04-22T21:24:46.060Z,45.04
2019-04-22T21:27:21.043Z,45.04
2019-04-22T21:29:43.627Z,44.83
2019-04-22T21:32:21.418Z,44.82
2019-04-22T21:34:54.063Z,44.82
2019-04-22T21:37:20.543Z,44.61
2019-04-22T21:39:43.561Z,44.75
2019-04-22T21:42:15.381Z,44.93
2019-04-22T21:44:45.696Z,44.79
2019-04-22T21:47:23.804Z,44.85
2019-04-22T21:49:56.672Z,45.12
2019-04-22T21:52:26.022Z,45.06
2019-04-22T21:54:56.351Z,44.83
2019-04-22T21:57:32.120Z,44.83
2019-04-22T22:00:04.475Z,45.17
2019-04-22T22:02:39.363Z,45.00
2019-04-22T22:04:59.005Z,45.00
2019-04-22T22:07:20.103Z,45.17
2019-04-22T22:10:04.380Z,45.17
2019-04-22T22:12:37.767Z,45.33
2019-04-22T22:15:08.718Z,45.49
2019-04-22T22:17:31.119Z,45.26
2019-04-22T22:20:20.801Z,45.28
2019-04-22T22:22:59.974Z,45.26
2019-04-22T22:25:24.095Z,45.13
2019-04-22T22:27:47.460Z,45.13
2019-04-22T22:30:43.152Z,45.26
2019-04-22T22:33:04.078Z,45.26
2019-04-22T22:35:29.696Z,45.35
2019-04-22T22:38:01.442Z,45.35
2019-04-22T22:40:14.713Z,45.40
2019-04-22T22:42:43.699Z,45.45
2019-04-22T22:45:19.888Z,45.06
2019-04-22T22:48:07.341Z,45.11
2019-04-22T22:50:27.722Z,44.89
2019-04-22T22:53:15.383Z,44.74
2019-04-22T22:55:26.469Z,44.97
2019-04-22T22:58:06.125Z,44.80
2019-04-22T23:00:33.841Z,44.71
2019-04-22T23:03:27.561Z,44.64
2019-04-22T23:05:37.681Z,44.66
2019-04-22T23:08:09.503Z,44.85
2019-04-22T23:10:44.016Z,45.00
2019-04-22T23:13:16.157Z,44.97
2019-04-22T23:15:27.707Z,44.97
2019-04-22T23:17:45.586Z,44.97
2019-04-22T23:20:18.567Z,45.44
2019-04-22T23:23:07.638Z,45.62
2019-04-22T23:25:45.036Z,45.73
2019-04-22T23:28:26.592Z,45.99
2019-04-22T23:31:12.091Z,46.15
2019-04-22T23:33:54.728Z,46.09
2019-04-22T23:36:45.895Z,46.24
2019-04-22T23:39:17.159Z,46.52
2019-04-22T23:42:08.984Z,46.71
2019-04-22T23:44:24.028Z,46.64
2019-04-22T23:47:04.902Z,46.92
2019-04-22T23:49:32.535Z,46.73
2019-04-22T23:52:16.301Z,47.09
2019-04-22T23:54:45.972Z,47.07
2019-04-22T23:57:09.021Z,47.07
